Main page
METAR-TAF:

METAR-TAF

Airports :

Porto Airport

Porto, Portugal

latitude: 41-14N, longitude: 008-41W, elevation: 69 m

Current weather observation

The report was made 23 minutes ago, at 10:30 UTC
Wind 5 kt from the East/Southeast
Temperature 13°C
Humidity 88%
Pressure 1016 hPa
Visibility 10 km or more
Few clouds at a height of 1000 ft

METAR: LPPR 061030Z 12005KT 9999 FEW010 13/11 Q1016

Time: 10:53 (10:53 UTC)

Forecast

The report was made 5 hours and 53 minutes ago, at 05:00 UTC
Forecast valid from 06 at 06 UTC to 07 at 06 UTC
Wind 2 kt from variable directions
Visibility 10 km or more
Few clouds at a height of 3000 ft
Probability 40%
from 06 at 14 UTC to 06 at 18 UTC
Wind 5 kt from the Northwest
Becoming
from 06 at 22 UTC to 06 at 24 UTC
Wind 5 kt from the East

TAF: LPPR 060500Z 0606/0706 VRB02KT 9999 FEW030 PROB40 0614/0618 32005KT BECMG 0622/0624 08005KT

Weather observations and forecasts of more than 4000 airports (METAR and TAF reports).

The available stations are represented by yellow and red dots on the map.

Hover mouse over dot to see the name of the station.

Then click to see weather observations and forecasts.

To change the map : click on the green buttons with a black cross to zoom in, on the green button with a dash to zoom out, or on the green arrows for adjacent maps.


METAR-TAF: